Terminal Aerodrome Forecast
Issued by NWS

Home | Current Version | Previous Version | Text Only | Print | Product List | Glossary On
Versions: 1 2 3 4 5 6 7 8 9 10 11 12
000
FTUS45 KRIW 202300
TAFRKS
TAF
KRKS 202327Z 2100/2124 25013G20KT P6SM VCSH SCT015 BKN040
     FM210700 25022G30KT 3SM -SN BLSN SCT012 OVC025
     FM211700 25030G38KT 5SM -SN BLSN SCT015 OVC030=

USA.gov is the U.S. government's official web portal to all federal, state and local government web resources and services.